Time;durP1;ratioP1;P1;durP2;ratioP2;P2;SDS_P1;SDS_P2;PMS_P1;PMS_P2;Temp;Humidity;BMP_temperature;BMP_pressure;BME280_temperature;BME280_humidity;BME280_pressure;Samples;Min_cycle;Max_cycle;Signal;HPM_P1;HPM_P2
2021/07/06 00:00:52;;;;;;;0.50;0.40;;;19.00;99.90;;;;;;5083022;28;20441;-78
2021/07/06 00:03:19;;;;;;;0.50;0.43;;;19.10;99.90;;;;;;5075049;28;20443;-78
2021/07/06 00:05:45;;;;;;;0.50;0.30;;;19.10;99.90;;;;;;5083296;28;20431;-79
2021/07/06 00:08:12;;;;;;;0.50;0.30;;;19.00;99.90;;;;;;5083251;28;20446;-79
2021/07/06 00:10:39;;;;;;;0.50;0.30;;;19.10;99.90;;;;;;5081103;28;20447;-78
2021/07/06 00:13:05;;;;;;;0.50;0.30;;;19.10;99.90;;;;;;5082707;28;20484;-78
2021/07/06 00:15:34;;;;;;;0.50;0.30;;;19.10;99.90;;;;;;5082977;28;20444;-79
2021/07/06 00:18:02;;;;;;;0.50;0.30;;;19.10;99.90;;;;;;5082441;28;20500;-79
2021/07/06 00:20:29;;;;;;;0.50;0.30;;;19.10;99.90;;;;;;5083245;28;20454;-79
2021/07/06 00:22:56;;;;;;;0.50;0.30;;;19.10;99.90;;;;;;5083507;28;20451;-79
2021/07/06 00:25:24;;;;;;;0.50;0.30;;;19.10;99.90;;;;;;5083106;28;20459;-78
2021/07/06 00:27:50;;;;;;;0.50;0.30;;;19.10;99.90;;;;;;5082717;28;20448;-78
2021/07/06 00:30:18;;;;;;;0.50;0.30;;;19.10;99.90;;;;;;5082572;28;20439;-76
2021/07/06 00:32:46;;;;;;;0.50;0.30;;;19.10;99.90;;;;;;5075201;28;20476;-79
2021/07/06 00:35:13;;;;;;;2.00;1.90;;;19.10;99.90;;;;;;5082086;28;20444;-79
2021/07/06 00:37:40;;;;;;;0.50;0.30;;;19.20;99.90;;;;;;5081754;28;20857;-78
2021/07/06 00:40:09;;;;;;;0.50;0.30;;;19.20;99.90;;;;;;5083228;28;20436;-79
2021/07/06 00:42:41;;;;;;;0.60;0.60;;;19.20;99.90;;;;;;5083167;28;20452;-79
2021/07/06 00:45:09;;;;;;;0.50;0.30;;;19.30;99.90;;;;;;5082795;28;20448;-79
2021/07/06 00:47:37;;;;;;;0.50;0.40;;;19.30;99.90;;;;;;5082094;28;20447;-79
2021/07/06 00:50:09;;;;;;;0.50;0.40;;;19.40;99.90;;;;;;5082306;28;20432;-81
2021/07/06 00:52:36;;;;;;;0.50;0.30;;;19.30;99.90;;;;;;5081630;28;20487;-78
2021/07/06 00:55:04;;;;;;;0.50;0.30;;;19.30;99.90;;;;;;5081873;28;20443;-79
2021/07/06 00:57:32;;;;;;;0.50;0.37;;;19.30;99.90;;;;;;5081861;28;20446;-79
2021/07/06 01:00:00;;;;;;;0.57;0.50;;;19.30;99.90;;;;;;5083035;28;20433;-79
2021/07/06 01:02:27;;;;;;;0.50;0.30;;;19.30;99.90;;;;;;5074570;28;20455;-80
2021/07/06 01:04:55;;;;;;;0.50;0.30;;;19.30;99.90;;;;;;5082297;28;20432;-80
2021/07/06 01:07:23;;;;;;;0.50;0.33;;;19.30;99.90;;;;;;5081317;28;20456;-79
2021/07/06 01:09:50;;;;;;;0.50;0.30;;;19.30;99.90;;;;;;5081967;28;20440;-78
2021/07/06 01:12:16;;;;;;;0.50;0.40;;;19.30;99.90;;;;;;5086416;28;20550;-78
2021/07/06 01:14:44;;;;;;;0.60;0.40;;;19.30;99.90;;;;;;5086918;28;20455;-79
2021/07/06 01:17:12;;;;;;;0.50;0.50;;;19.30;99.90;;;;;;5084117;28;20465;-78
2021/07/06 01:19:41;;;;;;;0.50;0.30;;;19.30;99.90;;;;;;5085486;28;20447;-79
2021/07/06 01:22:09;;;;;;;0.50;0.30;;;19.20;99.90;;;;;;5085248;28;20463;-76
2021/07/06 01:24:38;;;;;;;0.50;0.30;;;19.20;99.90;;;;;;5085151;28;20436;-78
2021/07/06 01:27:06;;;;;;;0.50;0.40;;;19.00;99.90;;;;;;5084454;28;20438;-79
2021/07/06 01:29:33;;;;;;;0.50;0.30;;;18.80;99.90;;;;;;5084541;28;20439;-78
2021/07/06 01:31:59;;;;;;;0.50;0.30;;;18.70;99.90;;;;;;5078555;28;20472;-78
2021/07/06 01:34:26;;;;;;;0.50;0.30;;;18.50;99.90;;;;;;5084101;28;20566;-78
2021/07/06 01:36:54;;;;;;;0.50;0.30;;;18.40;99.90;;;;;;5084387;28;20443;-78
2021/07/06 01:39:22;;;;;;;0.50;0.30;;;18.30;99.90;;;;;;5085214;28;20447;-79
2021/07/06 01:41:49;;;;;;;0.50;0.30;;;18.30;99.90;;;;;;5084621;28;20469;-79
2021/07/06 01:44:20;;;;;;;0.50;0.40;;;18.20;99.90;;;;;;5084076;28;20442;-78
2021/07/06 01:46:47;;;;;;;0.50;0.30;;;18.20;99.90;;;;;;5084270;28;20443;-78
2021/07/06 01:49:14;;;;;;;0.50;0.30;;;18.10;99.90;;;;;;5083539;28;20446;-79
2021/07/06 01:51:41;;;;;;;0.50;0.30;;;18.10;99.90;;;;;;5084061;28;20458;-78
2021/07/06 01:54:08;;;;;;;0.50;0.30;;;18.10;99.90;;;;;;5083731;28;20475;-79
2021/07/06 01:56:38;;;;;;;0.50;0.30;;;18.00;99.90;;;;;;5084466;28;20446;-79
2021/07/06 01:59:05;;;;;;;0.50;0.30;;;18.10;99.90;;;;;;5084382;28;20439;-79
2021/07/06 02:01:32;;;;;;;0.50;0.30;;;18.00;99.90;;;;;;5080638;28;20468;-79
2021/07/06 02:03:59;;;;;;;0.50;0.30;;;18.00;99.90;;;;;;5078697;28;20481;-78
2021/07/06 02:06:26;;;;;;;0.50;0.30;;;18.10;99.90;;;;;;5082169;28;20454;-77
2021/07/06 02:08:53;;;;;;;0.50;0.40;;;18.10;99.90;;;;;;5083035;28;20447;-77
2021/07/06 02:11:20;;;;;;;0.50;0.30;;;18.00;99.90;;;;;;5078952;28;20442;-78
2021/07/06 02:13:48;;;;;;;0.50;0.40;;;18.10;99.90;;;;;;5076663;28;21078;-79
2021/07/06 02:16:15;;;;;;;0.50;0.30;;;18.10;99.90;;;;;;5076491;28;20438;-77
2021/07/06 02:18:42;;;;;;;0.50;0.40;;;18.00;99.90;;;;;;5081399;28;20801;-78
2021/07/06 02:21:09;;;;;;;0.50;0.37;;;18.00;99.90;;;;;;5081066;28;20440;-77
2021/07/06 02:23:36;;;;;;;0.50;0.30;;;18.00;99.90;;;;;;5081061;28;20439;-78
2021/07/06 02:26:05;;;;;;;0.50;0.30;;;18.00;99.90;;;;;;5080890;28;20826;-78
2021/07/06 02:28:32;;;;;;;0.50;0.37;;;18.00;99.90;;;;;;5080818;28;20470;-79
2021/07/06 02:31:00;;;;;;;0.50;0.40;;;18.00;99.90;;;;;;5081318;28;20451;-80
2021/07/06 02:33:33;;;;;;;0.50;0.30;;;18.00;99.90;;;;;;5073962;28;20502;-78
2021/07/06 02:35:59;;;;;;;0.50;0.40;;;17.90;99.90;;;;;;5081703;28;20436;-79
2021/07/06 02:38:26;;;;;;;0.50;0.40;;;18.00;99.90;;;;;;5082417;28;20445;-78
2021/07/06 02:40:53;;;;;;;0.50;0.30;;;17.90;99.90;;;;;;5082159;28;20439;-79
2021/07/06 02:43:20;;;;;;;0.50;0.30;;;17.90;99.90;;;;;;5082735;28;20458;-80
2021/07/06 02:45:47;;;;;;;0.50;0.30;;;17.90;99.90;;;;;;5082165;28;20446;-79
2021/07/06 02:48:15;;;;;;;0.50;0.30;;;18.00;99.90;;;;;;5081830;28;20454;-78
2021/07/06 02:50:42;;;;;;;0.50;0.30;;;18.00;99.90;;;;;;5082210;28;20443;-79
2021/07/06 02:53:11;;;;;;;0.50;0.30;;;18.00;99.90;;;;;;5083019;28;20556;-75
2021/07/06 02:55:38;;;;;;;0.50;0.40;;;18.10;99.90;;;;;;5081862;28;20436;-79
2021/07/06 02:58:05;;;;;;;0.50;0.40;;;18.20;99.90;;;;;;5081760;28;20457;-78
2021/07/06 03:00:33;;;;;;;0.50;0.30;;;18.20;99.90;;;;;;5081385;28;20952;-79
2021/07/06 03:03:01;;;;;;;0.50;0.40;;;18.30;99.90;;;;;;5074498;28;20472;-78
2021/07/06 03:05:32;;;;;;;0.50;0.50;;;18.30;99.90;;;;;;5078741;28;20850;-77
2021/07/06 03:08:00;;;;;;;0.50;0.30;;;18.20;99.90;;;;;;5078466;28;20446;-78
2021/07/06 03:10:29;;;;;;;0.50;0.40;;;18.20;99.90;;;;;;5076890;28;20439;-78
2021/07/06 03:12:56;;;;;;;0.50;0.40;;;18.30;99.90;;;;;;5077196;28;20466;-78
2021/07/06 03:15:25;;;;;;;0.50;0.40;;;18.30;99.90;;;;;;5077515;28;20447;-79
2021/07/06 03:17:52;;;;;;;0.50;0.40;;;18.30;99.90;;;;;;5077798;28;20443;-78
2021/07/06 03:20:20;;;;;;;0.50;0.30;;;18.30;99.90;;;;;;5078030;28;20446;-78
2021/07/06 03:22:49;;;;;;;0.50;0.30;;;18.30;99.90;;;;;;5077127;28;20460;-78
2021/07/06 03:25:19;;;;;;;0.50;0.40;;;18.30;99.90;;;;;;5077630;28;20439;-78
2021/07/06 03:27:45;;;;;;;0.70;0.40;;;18.40;99.90;;;;;;5079238;28;20455;-79
2021/07/06 03:30:14;;;;;;;0.50;0.40;;;18.40;99.90;;;;;;5081562;28;20437;-79
2021/07/06 03:32:41;;;;;;;0.50;0.30;;;18.50;99.90;;;;;;5072367;28;20466;-79
2021/07/06 03:35:10;;;;;;;0.50;0.40;;;18.50;99.90;;;;;;5079481;28;20938;-79
2021/07/06 03:37:38;;;;;;;0.50;0.30;;;18.40;99.90;;;;;;5077262;28;20447;-77
2021/07/06 03:40:09;;;;;;;0.50;0.40;;;18.50;99.90;;;;;;5077356;28;20442;-78
2021/07/06 03:42:36;;;;;;;0.50;0.40;;;18.50;99.90;;;;;;5077072;28;20533;-79
2021/07/06 03:45:04;;;;;;;0.50;0.30;;;18.60;99.90;;;;;;5077872;28;20447;-78
2021/07/06 03:47:31;;;;;;;0.50;0.30;;;18.50;99.90;;;;;;5079680;28;20825;-78
2021/07/06 03:49:57;;;;;;;4.30;1.63;;;18.60;99.90;;;;;;5080400;28;20457;-78
2021/07/06 03:52:24;;;;;;;1.23;1.13;;;18.60;99.90;;;;;;5078914;28;20469;-78
2021/07/06 03:54:51;;;;;;;0.50;0.30;;;18.60;99.90;;;;;;5076504;28;20475;-77
2021/07/06 03:57:28;;;;;;;0.50;0.30;;;18.70;99.90;;;;;;5075638;28;20443;-79
2021/07/06 03:59:56;;;;;;;0.50;0.40;;;18.80;99.90;;;;;;5077037;28;20424;-78
2021/07/06 04:02:22;;;;;;;0.50;0.40;;;18.80;99.90;;;;;;5069012;28;20469;-78
2021/07/06 04:04:49;;;;;;;0.50;0.30;;;18.90;99.90;;;;;;5076927;28;20435;-78
2021/07/06 04:07:16;;;;;;;0.50;0.40;;;18.90;99.90;;;;;;5076764;28;20438;-77
2021/07/06 04:09:42;;;;;;;0.53;0.50;;;19.00;99.90;;;;;;5077985;28;20450;-78
2021/07/06 04:12:09;;;;;;;0.50;0.40;;;19.10;99.90;;;;;;5073614;28;20486;-78
2021/07/06 04:14:38;;;;;;;0.50;0.50;;;19.20;99.90;;;;;;5074919;28;20853;-78
2021/07/06 04:17:05;;;;;;;2.20;2.10;;;19.20;99.90;;;;;;5080058;28;20451;-79
2021/07/06 04:19:32;;;;;;;0.50;0.33;;;19.40;99.90;;;;;;5078948;28;20828;-79
2021/07/06 04:21:59;;;;;;;0.60;0.60;;;19.40;99.90;;;;;;5077086;28;20463;-79
2021/07/06 04:24:27;;;;;;;0.50;0.40;;;19.50;99.90;;;;;;5078392;28;21089;-79
2021/07/06 04:26:54;;;;;;;0.50;0.30;;;19.60;99.90;;;;;;5077732;28;20444;-79
2021/07/06 04:29:20;;;;;;;0.50;0.40;;;19.70;99.90;;;;;;5079117;28;20818;-79
2021/07/06 04:31:48;;;;;;;0.50;0.40;;;19.70;99.90;;;;;;5074098;28;20471;-79
2021/07/06 04:34:15;;;;;;;0.50;0.40;;;19.80;99.90;;;;;;5076335;28;20485;-79
2021/07/06 04:36:42;;;;;;;0.50;0.40;;;19.90;99.90;;;;;;5078335;28;20798;-79
2021/07/06 04:39:09;;;;;;;0.50;0.30;;;20.00;99.90;;;;;;5078786;28;20444;-79
2021/07/06 04:41:35;;;;;;;0.53;0.53;;;20.10;99.90;;;;;;5079079;28;20464;-79
2021/07/06 04:44:02;;;;;;;0.50;0.40;;;20.10;99.90;;;;;;5077303;28;20446;-79
2021/07/06 04:46:29;;;;;;;0.50;0.40;;;20.10;99.90;;;;;;5080768;28;20526;-79
2021/07/06 04:48:57;;;;;;;0.50;0.30;;;20.20;99.90;;;;;;5082883;28;20439;-79
2021/07/06 04:51:24;;;;;;;0.50;0.40;;;20.20;99.90;;;;;;5079447;28;20439;-79
2021/07/06 04:53:50;;;;;;;0.50;0.40;;;20.10;99.90;;;;;;5082020;28;21022;-79
2021/07/06 04:56:17;;;;;;;0.50;0.40;;;20.10;99.90;;;;;;5080589;28;20447;-79
2021/07/06 04:58:44;;;;;;;0.60;0.40;;;20.10;99.90;;;;;;5081527;28;20448;-78
2021/07/06 05:01:11;;;;;;;0.50;0.40;;;20.00;99.90;;;;;;5078316;28;20454;-79
2021/07/06 05:03:39;;;;;;;0.50;0.30;;;19.90;99.90;;;;;;5071501;28;20436;-79
2021/07/06 05:06:07;;;;;;;0.50;0.33;;;19.70;99.90;;;;;;5077438;28;20526;-79
2021/07/06 05:08:35;;;;;;;0.50;0.37;;;19.60;99.90;;;;;;5080290;28;20459;-78
2021/07/06 05:11:01;;;;;;;0.60;0.50;;;19.40;99.90;;;;;;5079073;28;20443;-79
2021/07/06 05:13:28;;;;;;;0.50;0.40;;;19.20;99.90;;;;;;5080108;28;20460;-76
2021/07/06 05:15:55;;;;;;;0.63;0.60;;;19.10;99.90;;;;;;5081993;28;20443;-78
2021/07/06 05:18:22;;;;;;;0.50;0.30;;;19.00;99.90;;;;;;5082051;28;20440;-79
2021/07/06 05:20:48;;;;;;;0.50;0.40;;;18.80;99.90;;;;;;5080414;28;20443;-78
2021/07/06 05:23:16;;;;;;;0.60;0.60;;;18.70;99.90;;;;;;5082480;28;20466;-78
2021/07/06 05:25:43;;;;;;;0.50;0.40;;;18.70;99.90;;;;;;5079059;28;20438;-79
2021/07/06 05:28:10;;;;;;;0.60;0.53;;;18.60;99.90;;;;;;5078353;28;20452;-78
2021/07/06 05:30:37;;;;;;;0.50;0.30;;;18.60;99.90;;;;;;5080591;28;20442;-79
2021/07/06 05:33:03;;;;;;;0.60;0.60;;;18.50;99.90;;;;;;5075756;28;20466;-79
2021/07/06 05:35:30;;;;;;;0.50;0.40;;;18.40;99.90;;;;;;5073909;28;21182;-77
2021/07/06 05:37:57;;;;;;;0.70;0.53;;;18.50;99.90;;;;;;5078275;28;20441;-79
2021/07/06 05:40:25;;;;;;;0.80;0.40;;;18.40;99.90;;;;;;5078689;28;20447;-78
2021/07/06 05:42:52;;;;;;;0.50;0.30;;;18.40;99.90;;;;;;5078882;28;20458;-79
2021/07/06 05:45:18;;;;;;;0.60;0.50;;;18.30;99.90;;;;;;5080091;28;20439;-79
2021/07/06 05:47:45;;;;;;;0.63;0.63;;;18.30;99.90;;;;;;5079126;28;20937;-79
2021/07/06 05:50:14;;;;;;;0.70;0.70;;;18.20;99.90;;;;;;5079008;28;20436;-78
2021/07/06 05:52:41;;;;;;;0.50;0.40;;;18.20;99.90;;;;;;5077955;28;20471;-78
2021/07/06 05:55:09;;;;;;;0.73;0.73;;;18.20;99.90;;;;;;5076717;28;20483;-78
2021/07/06 05:57:40;;;;;;;0.53;0.40;;;18.20;99.90;;;;;;5076418;28;20937;-78
2021/07/06 06:00:09;;;;;;;3.43;0.50;;;18.20;99.90;;;;;;5080303;28;20456;-78
2021/07/06 06:02:36;;;;;;;0.57;0.50;;;18.20;99.90;;;;;;5068554;28;20463;-79
2021/07/06 06:05:04;;;;;;;0.93;0.70;;;18.20;99.90;;;;;;5078447;28;20440;-78
2021/07/06 06:07:30;;;;;;;0.60;0.60;;;18.10;99.90;;;;;;5075304;28;20439;-79
2021/07/06 06:09:57;;;;;;;0.70;0.70;;;18.20;99.90;;;;;;5076109;28;20451;-77
2021/07/06 06:12:25;;;;;;;1.13;1.00;;;18.20;99.90;;;;;;5076395;28;20978;-78
2021/07/06 06:14:53;;;;;;;0.50;0.40;;;18.20;99.90;;;;;;5076438;28;20868;-79
2021/07/06 06:17:20;;;;;;;0.50;0.40;;;18.20;99.90;;;;;;5075400;28;20444;-78
2021/07/06 06:19:47;;;;;;;1.00;0.67;;;18.20;99.90;;;;;;5078303;28;20945;-77
2021/07/06 06:22:14;;;;;;;0.50;0.30;;;18.20;99.90;;;;;;5074917;28;20555;-77
2021/07/06 06:24:40;;;;;;;0.50;0.30;;;18.20;99.90;;;;;;5077030;28;20459;-78
2021/07/06 06:27:07;;;;;;;0.57;0.57;;;18.10;99.90;;;;;;5075836;28;20446;-78
2021/07/06 06:29:34;;;;;;;0.60;0.40;;;18.10;99.90;;;;;;5077123;28;20452;-78
2021/07/06 06:32:02;;;;;;;0.50;0.50;;;18.10;99.90;;;;;;5068425;28;20508;-79
2021/07/06 06:34:29;;;;;;;0.60;0.40;;;18.00;99.90;;;;;;5063448;28;20468;-78
2021/07/06 06:36:55;;;;;;;0.93;0.83;;;18.00;99.90;;;;;;5076167;28;20510;-79
2021/07/06 06:39:23;;;;;;;0.60;0.50;;;18.00;99.90;;;;;;5063521;28;20450;-77
2021/07/06 06:41:50;;;;;;;0.60;0.60;;;17.90;99.90;;;;;;5075670;28;20463;-78
2021/07/06 06:44:18;;;;;;;0.50;0.40;;;17.90;99.90;;;;;;5076052;28;20428;-76
2021/07/06 06:46:45;;;;;;;0.50;0.50;;;17.90;99.90;;;;;;5078017;28;20451;-79
2021/07/06 06:49:13;;;;;;;0.50;0.40;;;17.90;99.90;;;;;;5076739;28;20436;-78
2021/07/06 06:51:40;;;;;;;0.67;0.67;;;17.90;99.90;;;;;;5078406;28;20459;-77
2021/07/06 06:54:07;;;;;;;0.50;0.30;;;17.90;99.90;;;;;;5076989;28;21035;-78
2021/07/06 06:56:35;;;;;;;0.50;0.40;;;17.90;99.90;;;;;;5077645;28;20451;-78
2021/07/06 06:59:02;;;;;;;0.50;0.50;;;17.90;99.90;;;;;;5077892;28;20444;-79
2021/07/06 07:01:29;;;;;;;0.50;0.30;;;17.80;99.90;;;;;;5074944;28;20471;-78
2021/07/06 07:03:56;;;;;;;0.70;0.57;;;17.80;99.90;;;;;;5073845;28;20432;-77
2021/07/06 07:06:24;;;;;;;0.70;0.70;;;17.80;99.90;;;;;;5077342;28;20451;-79
2021/07/06 07:08:50;;;;;;;0.70;0.70;;;17.80;99.90;;;;;;5077476;28;20756;-79
2021/07/06 07:11:17;;;;;;;0.70;0.50;;;17.70;99.90;;;;;;5077726;28;20440;-79
2021/07/06 07:13:44;;;;;;;0.83;0.83;;;17.70;99.90;;;;;;5077695;28;20444;-78
2021/07/06 07:16:10;;;;;;;0.50;0.40;;;17.60;99.90;;;;;;5077766;28;20493;-79
2021/07/06 07:18:37;;;;;;;0.50;0.30;;;17.60;99.90;;;;;;5077932;28;20446;-78
2021/07/06 07:21:04;;;;;;;0.50;0.40;;;17.70;99.90;;;;;;5078818;28;20438;-79
2021/07/06 07:23:32;;;;;;;0.50;0.40;;;17.80;99.90;;;;;;5078478;28;20460;-78
2021/07/06 07:25:59;;;;;;;0.50;0.30;;;17.90;99.90;;;;;;5076860;28;20440;-78
2021/07/06 07:28:26;;;;;;;0.60;0.50;;;18.10;99.90;;;;;;5076671;28;20810;-78
2021/07/06 07:30:52;;;;;;;0.50;0.40;;;18.20;99.90;;;;;;5076966;28;20455;-78
2021/07/06 07:33:19;;;;;;;0.50;0.30;;;18.40;99.90;;;;;;5069363;28;20464;-79
2021/07/06 07:35:46;;;;;;;0.50;0.30;;;18.50;99.90;;;;;;5077549;28;20509;-79
2021/07/06 07:38:12;;;;;;;0.50;0.40;;;18.70;99.90;;;;;;5077207;28;20433;-79
2021/07/06 07:40:41;;;;;;;0.60;0.50;;;18.80;99.90;;;;;;5076702;28;20783;-77
2021/07/06 07:43:07;;;;;;;0.50;0.30;;;18.80;99.90;;;;;;5075695;28;20460;-78
2021/07/06 07:45:35;;;;;;;0.50;0.30;;;18.90;99.90;;;;;;5075243;28;20936;-79
2021/07/06 07:48:02;;;;;;;0.50;0.30;;;19.00;99.90;;;;;;5076067;28;20468;-78
2021/07/06 07:50:29;;;;;;;0.50;0.30;;;19.10;99.90;;;;;;5077489;28;20477;-78
2021/07/06 07:52:55;;;;;;;0.60;0.40;;;19.10;99.90;;;;;;5077382;28;20463;-78
2021/07/06 07:55:22;;;;;;;0.50;0.40;;;19.10;99.90;;;;;;5064081;28;20480;-77
2021/07/06 07:57:50;;;;;;;0.50;0.40;;;19.10;99.90;;;;;;5068286;28;20440;-78
2021/07/06 08:00:18;;;;;;;0.50;0.30;;;19.20;99.90;;;;;;5074644;28;20444;-78
2021/07/06 08:02:44;;;;;;;0.50;0.40;;;19.20;99.90;;;;;;5065942;28;20456;-78
2021/07/06 08:05:11;;;;;;;0.50;0.40;;;19.20;99.90;;;;;;5066397;28;20449;-78
2021/07/06 08:07:38;;;;;;;0.50;0.40;;;19.20;99.90;;;;;;5052583;28;20441;-79
2021/07/06 08:10:06;;;;;;;0.50;0.40;;;19.30;99.90;;;;;;5052242;28;20444;-79
2021/07/06 08:48:33;;;;;;;0.60;0.50;;;19.70;99.90;;;;;;5091349;28;20589;-78
2021/07/06 08:51:02;;;;;;;0.50;0.30;;;19.90;99.90;;;;;;5092021;28;20849;-77
2021/07/06 08:53:29;;;;;;;0.50;0.40;;;20.00;99.90;;;;;;5092309;28;20458;-78
2021/07/06 08:55:58;;;;;;;0.50;0.40;;;20.20;99.90;;;;;;5093199;28;20791;-76
2021/07/06 08:58:25;;;;;;;0.83;0.83;;;20.20;99.90;;;;;;5092941;28;20470;-77
2021/07/06 09:00:52;;;;;;;0.50;0.33;;;20.10;99.90;;;;;;5093544;28;20446;-78
2021/07/06 09:03:19;;;;;;;0.70;0.70;;;20.00;99.90;;;;;;5085709;28;20922;-77
2021/07/06 09:05:47;;;;;;;0.50;0.40;;;19.90;99.90;;;;;;5092728;28;20431;-78
2021/07/06 09:08:18;;;;;;;0.50;0.50;;;19.90;99.90;;;;;;5091012;28;21064;-77
2021/07/06 09:10:45;;;;;;;0.60;0.40;;;19.90;99.90;;;;;;5092541;28;20919;-77
2021/07/06 09:13:19;;;;;;;0.60;0.60;;;20.00;99.90;;;;;;5091832;28;20838;-74
2021/07/06 09:15:51;;;;;;;0.50;0.30;;;20.10;99.90;;;;;;5091564;28;20444;-77
2021/07/06 09:18:20;;;;;;;0.50;0.50;;;20.20;99.90;;;;;;5090681;28;20558;-76
2021/07/06 09:21:01;;;;;;;0.50;0.40;;;20.10;99.90;;;;;;5091342;28;20442;-78
2021/07/06 09:23:34;;;;;;;0.50;0.37;;;20.20;99.90;;;;;;5092450;28;20459;-77
2021/07/06 09:26:21;;;;;;;0.50;0.50;;;20.30;99.90;;;;;;5091790;28;20423;-77
2021/07/06 09:28:49;;;;;;;0.60;0.60;;;20.30;99.90;;;;;;5092165;28;20543;-79
2021/07/06 09:31:26;;;;;;;0.50;0.40;;;20.20;99.90;;;;;;5090288;28;20439;-77
2021/07/06 09:34:00;;;;;;;1.33;1.23;;;20.30;99.90;;;;;;5084470;28;20966;-78
2021/07/06 09:36:31;;;;;;;0.50;0.47;;;20.30;99.90;;;;;;5090501;28;20443;-76
2021/07/06 09:39:06;;;;;;;0.50;0.40;;;20.20;99.90;;;;;;5088711;28;20471;-78
2021/07/06 09:41:33;;;;;;;0.50;0.30;;;20.30;99.90;;;;;;5089076;28;20470;-79
2021/07/06 09:44:17;;;;;;;0.60;0.60;;;20.30;99.90;;;;;;5089858;28;20483;-78
2021/07/06 09:46:49;;;;;;;0.50;0.50;;;20.30;99.90;;;;;;5088032;28;21068;-78
2021/07/06 09:49:17;;;;;;;0.50;0.30;;;20.40;99.90;;;;;;5089639;28;20436;-78
2021/07/06 09:51:45;;;;;;;0.50;0.40;;;20.60;99.90;;;;;;5089983;28;20904;-78
2021/07/06 09:54:24;;;;;;;0.50;0.30;;;20.60;99.90;;;;;;5090162;28;20451;-78
2021/07/06 09:56:52;;;;;;;0.50;0.30;;;20.70;99.90;;;;;;5090016;28;20425;-78
2021/07/06 09:59:18;;;;;;;0.60;0.60;;;20.90;99.90;;;;;;5081377;28;20494;-77
2021/07/06 10:01:55;;;;;;;0.50;0.40;;;21.00;99.90;;;;;;5070789;28;20464;-78
2021/07/06 10:04:25;;;;;;;1.63;0.57;;;21.00;99.90;;;;;;5075616;28;20833;-78
2021/07/06 10:06:55;;;;;;;0.50;0.50;;;20.90;99.90;;;;;;5078418;28;20555;-77
2021/07/06 10:09:22;;;;;;;0.50;0.40;;;20.90;99.90;;;;;;5076707;28;20889;-76
2021/07/06 10:11:49;;;;;;;1.00;0.90;;;21.00;99.90;;;;;;5079140;28;21009;-78
2021/07/06 10:14:16;;;;;;;0.50;0.30;;;20.90;99.90;;;;;;5077089;28;20451;-76
2021/07/06 10:16:43;;;;;;;0.60;0.50;;;21.00;99.90;;;;;;5075091;28;20436;-77
2021/07/06 10:19:11;;;;;;;0.50;0.30;;;20.90;99.90;;;;;;5077675;28;20440;-79
2021/07/06 10:21:38;;;;;;;0.50;0.50;;;21.00;99.90;;;;;;5078186;28;20457;-78
2021/07/06 10:24:07;;;;;;;0.50;0.40;;;20.90;99.90;;;;;;5078343;28;20817;-76
2021/07/06 10:26:35;;;;;;;9.13;1.23;;;21.00;99.90;;;;;;5078306;28;20428;-78
2021/07/06 10:29:03;;;;;;;0.50;0.30;;;21.00;99.90;;;;;;5079181;28;20444;-78
2021/07/06 10:31:30;;;;;;;0.50;0.30;;;21.10;99.90;;;;;;5073953;28;20532;-79
2021/07/06 10:33:58;;;;;;;1.90;1.37;;;21.20;99.90;;;;;;5074448;28;20479;-78
2021/07/06 10:36:39;;;;;;;0.50;0.40;;;21.20;99.90;;;;;;5077824;28;20533;-76
2021/07/06 10:39:10;;;;;;;0.53;0.40;;;21.90;99.90;;;;;;5077992;28;20452;-78
2021/07/06 10:41:58;;;;;;;0.50;0.40;;;22.40;99.90;;;;;;5077508;28;20556;-77
2021/07/06 10:44:35;;;;;;;0.50;0.30;;;23.40;99.90;;;;;;5077808;28;20974;-78
2021/07/06 10:47:03;;;;;;;0.70;0.60;;;24.40;99.90;;;;;;5079349;28;20862;-78
2021/07/06 10:49:33;;;;;;;1.13;0.40;;;25.00;99.90;;;;;;5080494;28;20432;-77
2021/07/06 10:52:02;;;;;;;0.93;0.50;;;24.60;99.90;;;;;;5080173;28;21177;-78
2021/07/06 10:54:35;;;;;;;1.17;0.90;;;24.20;99.90;;;;;;5080732;28;20489;-78
2021/07/06 10:57:22;;;;;;;0.50;0.40;;;24.70;99.90;;;;;;5080753;28;20433;-78
2021/07/06 10:59:56;;;;;;;0.90;0.40;;;25.70;99.90;;;;;;5080689;28;21025;-78
2021/07/06 11:02:25;;;;;;;0.50;0.40;;;25.80;99.90;;;;;;5072332;28;20559;-77
2021/07/06 11:04:56;;;;;;;2.30;0.40;;;25.50;99.90;;;;;;5079415;28;20432;-78
2021/07/06 11:07:51;;;;;;;0.50;0.40;;;26.40;99.90;;;;;;5079129;28;20449;-78
2021/07/06 11:10:20;;;;;;;3.67;0.70;;;26.90;99.90;;;;;;5079284;28;20435;-77
2021/07/06 11:12:48;;;;;;;0.50;0.30;;;25.80;99.90;;;;;;5079422;28;20496;-76
2021/07/06 11:15:25;;;;;;;0.60;0.40;;;26.40;99.90;;;;;;5079791;28;20445;-76
2021/07/06 11:18:02;;;;;;;0.50;0.30;;;25.80;99.90;;;;;;5079200;28;20441;-78
2021/07/06 11:20:41;;;;;;;1.10;0.50;;;25.40;99.90;;;;;;5078984;28;20420;-77
2021/07/06 11:23:09;;;;;;;1.23;0.43;;;24.80;99.90;;;;;;5073386;28;20468;-77
2021/07/06 11:25:46;;;;;;;1.47;0.40;;;24.70;99.90;;;;;;5073654;28;20809;-78
2021/07/06 11:28:15;;;;;;;0.50;0.30;;;25.10;99.90;;;;;;5073582;28;20464;-77
2021/07/06 11:30:44;;;;;;;0.50;0.30;;;25.90;99.90;;;;;;5075354;28;20933;-78
2021/07/06 11:33:13;;;;;;;0.50;0.30;;;25.70;99.90;;;;;;5066785;28;20460;-77
2021/07/06 11:35:42;;;;;;;9.73;0.60;;;25.80;99.90;;;;;;5076038;28;20444;-77
2021/07/06 11:38:10;;;;;;;0.60;0.60;;;25.80;99.90;;;;;;5073978;28;20432;-77
2021/07/06 11:40:40;;;;;;;0.50;0.40;;;25.60;99.90;;;;;;5075964;28;20444;-78
2021/07/06 11:43:09;;;;;;;0.60;0.40;;;25.20;99.90;;;;;;5076013;28;20472;-78
2021/07/06 11:45:37;;;;;;;0.50;0.30;;;26.20;99.90;;;;;;5076374;28;20490;-78
2021/07/06 11:48:05;;;;;;;0.50;0.40;;;26.60;99.90;;;;;;5077074;28;20481;-77
2021/07/06 11:50:32;;;;;;;0.67;0.47;;;26.60;99.90;;;;;;5076184;28;20448;-77
2021/07/06 11:52:59;;;;;;;0.50;0.30;;;26.80;99.90;;;;;;5075991;28;20463;-78
2021/07/06 11:55:27;;;;;;;0.60;0.40;;;27.20;99.90;;;;;;5074344;28;20477;-77
2021/07/06 11:57:55;;;;;;;0.50;0.40;;;26.40;94.80;;;;;;5077626;28;20447;-78
2021/07/06 12:00:25;;;;;;;0.50;0.40;;;25.40;99.20;;;;;;5080898;28;20516;-78
2021/07/06 12:02:52;;;;;;;0.50;0.40;;;25.30;99.90;;;;;;5073768;28;20465;-79
2021/07/06 12:05:20;;;;;;;0.60;0.50;;;25.80;99.90;;;;;;5081873;28;20433;-77
2021/07/06 12:07:47;;;;;;;0.50;0.40;;;26.00;97.10;;;;;;5078706;28;20474;-78
2021/07/06 12:10:14;;;;;;;8.23;0.90;;;26.20;93.80;;;;;;5080496;28;20438;-79
2021/07/06 12:12:40;;;;;;;0.50;0.40;;;26.20;93.50;;;;;;5082683;28;20457;-78
2021/07/06 12:15:08;;;;;;;0.50;0.40;;;27.00;90.50;;;;;;5083279;28;20440;-79
2021/07/06 12:17:36;;;;;;;0.50;0.40;;;27.90;87.30;;;;;;5081705;28;20426;-79
2021/07/06 12:20:15;;;;;;;6.73;0.70;;;27.60;82.90;;;;;;5082471;28;20449;-80
2021/07/06 12:22:42;;;;;;;0.60;0.40;;;27.60;83.40;;;;;;5084573;28;20448;-81
2021/07/06 12:25:11;;;;;;;0.63;0.63;;;27.10;83.90;;;;;;5082709;28;20501;-79
2021/07/06 12:27:38;;;;;;;0.50;0.30;;;27.30;83.40;;;;;;5082267;28;20478;-78
2021/07/06 12:30:05;;;;;;;0.50;0.40;;;27.30;82.00;;;;;;5081044;28;20446;-79
2021/07/06 12:32:32;;;;;;;1.07;0.50;;;27.10;82.10;;;;;;5076360;28;20458;-78
2021/07/06 12:35:00;;;;;;;0.50;0.30;;;28.00;83.90;;;;;;5082761;28;20790;-79
2021/07/06 12:37:28;;;;;;;0.50;0.37;;;28.30;79.00;;;;;;5081373;28;20462;-79
2021/07/06 12:40:03;;;;;;;0.50;0.30;;;28.20;78.00;;;;;;5081751;28;20443;-79
2021/07/06 12:42:37;;;;;;;0.50;0.30;;;27.60;78.10;;;;;;5080115;28;20820;-78
2021/07/06 12:45:08;;;;;;;0.50;0.40;;;27.40;81.40;;;;;;5081913;28;20431;-79
2021/07/06 12:47:38;;;;;;;0.50;0.30;;;26.70;80.40;;;;;;5081130;28;20472;-79
2021/07/06 12:50:12;;;;;;;0.60;0.50;;;26.70;82.00;;;;;;5081197;28;20441;-78
2021/07/06 12:52:40;;;;;;;0.50;0.40;;;26.70;78.80;;;;;;5080214;28;20458;-79
2021/07/06 12:55:09;;;;;;;0.73;0.73;;;26.50;81.00;;;;;;5080293;28;20452;-79
2021/07/06 12:57:35;;;;;;;1.63;0.80;;;26.00;77.30;;;;;;5080909;28;20441;-79
2021/07/06 13:00:11;;;;;;;0.50;0.50;;;25.50;83.40;;;;;;5080416;28;20442;-79
2021/07/06 13:02:39;;;;;;;3.07;1.03;;;25.30;83.90;;;;;;5072894;28;20460;-79
2021/07/06 13:05:18;;;;;;;5.70;0.93;;;25.90;80.70;;;;;;5080156;28;20441;-80
2021/07/06 13:07:46;;;;;;;0.60;0.40;;;26.40;80.40;;;;;;5080024;28;20465;-78
2021/07/06 13:10:15;;;;;;;0.50;0.30;;;26.50;79.40;;;;;;5081782;28;20455;-79
2021/07/06 13:12:43;;;;;;;0.50;0.40;;;27.40;83.40;;;;;;5081789;28;20458;-79
2021/07/06 13:15:11;;;;;;;0.50;0.30;;;27.50;77.30;;;;;;5080383;28;20445;-80
2021/07/06 13:17:45;;;;;;;0.50;0.40;;;27.80;74.70;;;;;;5079545;28;20931;-79
2021/07/06 13:20:15;;;;;;;0.60;0.40;;;27.30;73.90;;;;;;5079674;28;20426;-79
2021/07/06 13:22:43;;;;;;;1.07;0.70;;;26.40;77.00;;;;;;5079896;28;20473;-79
2021/07/06 13:25:11;;;;;;;0.50;0.40;;;25.50;78.20;;;;;;5081983;28;20457;-79
2021/07/06 13:27:38;;;;;;;0.60;0.50;;;25.20;83.80;;;;;;5080005;28;20464;-79
2021/07/06 13:30:07;;;;;;;0.60;0.50;;;25.40;82.90;;;;;;5080663;28;20446;-79